createdAt,value
2022-09-28T00:01:40.996Z,83.25
2022-09-28T00:06:40.025Z,83.30
2022-09-28T00:11:39.552Z,83.31
2022-09-28T00:16:43.731Z,83.35
2022-09-28T00:21:44.842Z,83.31
2022-09-28T00:26:48.368Z,83.25
2022-09-28T00:32:04.218Z,83.56
2022-09-28T00:37:19.456Z,83.93
2022-09-28T00:42:25.538Z,84.36
2022-09-28T00:47:52.230Z,84.61
2022-09-28T00:53:13.121Z,84.82
2022-09-28T00:58:27.568Z,85.01
2022-09-28T01:03:33.754Z,84.93
2022-09-28T01:08:38.250Z,84.82
2022-09-28T01:13:37.718Z,84.84
2022-09-28T01:18:48.912Z,84.82
2022-09-28T01:24:31.343Z,84.88
2022-09-28T01:29:48.336Z,85.12
2022-09-28T01:34:58.992Z,85.25
2022-09-28T01:40:05.664Z,85.47
2022-09-28T01:45:13.051Z,85.72
2022-09-28T01:50:18.642Z,85.85
2022-09-28T01:55:26.981Z,86.06
2022-09-28T02:00:29.746Z,86.12
2022-09-28T02:05:35.484Z,86.12
2022-09-28T02:10:41.008Z,86.25
2022-09-28T02:15:51.732Z,86.22
2022-09-28T02:21:01.154Z,86.22
2022-09-28T02:26:10.858Z,86.21
2022-09-28T02:31:10.443Z,86.29
2022-09-28T02:36:11.269Z,86.30
2022-09-28T02:41:23.708Z,86.31
2022-09-28T02:46:40.618Z,86.31
2022-09-28T02:52:24.062Z,86.30
2022-09-28T02:57:38.965Z,86.32
2022-09-28T03:02:56.621Z,86.36
2022-09-28T03:08:04.330Z,86.30
2022-09-28T03:13:04.770Z,86.30
2022-09-28T03:18:04.969Z,86.32
2022-09-28T03:28:24.557Z,86.36
2022-09-28T03:33:25.110Z,86.37
2022-09-28T03:38:25.452Z,86.40
2022-09-28T03:43:33.064Z,86.40
2022-09-28T03:48:35.496Z,86.49
2022-09-28T03:53:36.510Z,86.53
2022-09-28T03:58:35.926Z,86.60
2022-09-28T04:03:35.185Z,86.60
2022-09-28T04:08:34.227Z,86.60
2022-09-28T04:13:34.234Z,86.60
2022-09-28T04:18:34.658Z,86.60
2022-09-28T04:23:44.138Z,86.60
2022-09-28T04:29:05.479Z,86.72
2022-09-28T04:34:05.620Z,86.79
2022-09-28T04:39:05.112Z,86.69
2022-09-28T04:44:05.757Z,86.71
2022-09-28T04:49:05.740Z,86.63
2022-09-28T04:54:15.986Z,86.61
2022-09-28T04:59:15.261Z,86.60
2022-09-28T05:04:14.560Z,86.58
2022-09-28T05:09:27.103Z,86.61
2022-09-28T05:14:26.419Z,86.61
2022-09-28T05:19:25.160Z,86.56
2022-09-28T05:24:26.068Z,86.53
2022-09-28T05:29:53.388Z,86.51
2022-09-28T05:35:14.956Z,86.50
2022-09-28T05:40:17.507Z,86.49
2022-09-28T05:45:18.347Z,86.39
2022-09-28T05:50:17.667Z,86.33
2022-09-28T05:55:17.239Z,86.19
2022-09-28T06:00:18.952Z,86.20
2022-09-28T06:05:23.555Z,86.18
2022-09-28T06:10:23.607Z,86.21
2022-09-28T06:15:22.702Z,86.06
2022-09-28T06:20:22.161Z,85.97
2022-09-28T06:25:41.939Z,85.80
2022-09-28T06:30:43.467Z,85.28
2022-09-28T06:35:44.885Z,84.90
2022-09-28T06:40:43.514Z,84.83
2022-09-28T06:45:44.934Z,84.93
2022-09-28T06:51:13.238Z,84.96
2022-09-28T06:56:32.538Z,85.04
2022-09-28T07:01:31.621Z,85.00
2022-09-28T07:06:52.852Z,84.83
2022-09-28T07:12:18.279Z,84.64
2022-09-28T07:17:26.119Z,84.22
2022-09-28T07:22:38.027Z,83.83
2022-09-28T07:27:39.804Z,83.64
2022-09-28T07:32:57.748Z,83.72
2022-09-28T07:38:15.348Z,83.21
2022-09-28T07:43:14.431Z,83.25
2022-09-28T07:48:15.382Z,82.95
2022-09-28T07:53:31.024Z,82.72
2022-09-28T07:58:43.721Z,82.61
2022-09-28T08:04:14.835Z,81.69
2022-09-28T08:09:15.792Z,80.68
2022-09-28T08:14:34.825Z,80.28
2022-09-28T08:20:02.239Z,79.78
2022-09-28T08:25:01.309Z,79.15
2022-09-28T08:30:20.109Z,78.22
2022-09-28T08:35:40.374Z,78.26
2022-09-28T08:40:57.820Z,78.55
2022-09-28T08:46:07.340Z,78.42
2022-09-28T08:51:52.102Z,77.80
2022-09-28T08:57:06.855Z,77.46
2022-09-28T09:02:16.129Z,76.81
2022-09-28T09:07:49.958Z,76.41
2022-09-28T09:13:01.981Z,76.31
2022-09-28T09:18:20.023Z,75.78
2022-09-28T09:23:57.509Z,74.86
2022-09-28T09:29:18.985Z,73.91
2022-09-28T09:34:44.077Z,73.26
2022-09-28T09:40:26.354Z,72.92
2022-09-28T09:45:53.767Z,72.91
2022-09-28T09:51:25.026Z,72.32
2022-09-28T09:56:34.760Z,72.59
2022-09-28T10:01:47.459Z,71.61
2022-09-28T10:07:02.771Z,71.08
2022-09-28T10:12:04.386Z,70.03
2022-09-28T10:17:06.563Z,67.61
2022-09-28T10:22:30.846Z,65.39
2022-09-28T10:27:36.820Z,65.46
2022-09-28T10:32:45.096Z,64.32
2022-09-28T10:37:56.666Z,63.38
2022-09-28T10:43:22.933Z,62.92
2022-09-28T10:48:24.913Z,61.90
2022-09-28T10:53:25.621Z,61.00
2022-09-28T10:58:48.352Z,60.87
2022-09-28T11:03:59.839Z,60.22
2022-09-28T11:09:02.051Z,60.37
2022-09-28T11:14:04.183Z,60.67
2022-09-28T11:19:30.799Z,61.56
2022-09-28T11:24:30.289Z,62.35
2022-09-28T11:29:40.064Z,62.76
2022-09-28T11:34:59.889Z,63.35
2022-09-28T11:40:19.902Z,63.10
2022-09-28T11:45:39.316Z,61.92
2022-09-28T11:50:51.160Z,61.28
2022-09-28T11:55:59.471Z,60.26
2022-09-28T12:01:07.054Z,60.22
2022-09-28T12:06:39.051Z,60.90
2022-09-28T12:11:45.444Z,60.41
2022-09-28T12:17:11.896Z,61.29
2022-09-28T12:22:20.780Z,60.87
2022-09-28T12:27:28.407Z,61.01
2022-09-28T12:32:37.631Z,60.56
2022-09-28T12:37:58.735Z,60.66
2022-09-28T12:43:20.397Z,60.16
2022-09-28T12:48:50.008Z,59.71
2022-09-28T12:54:15.838Z,59.78
2022-09-28T12:59:26.734Z,59.34
2022-09-28T13:05:00.646Z,56.59
2022-09-28T13:10:16.848Z,55.13
2022-09-28T13:15:34.351Z,55.19
2022-09-28T13:20:52.754Z,55.76
2022-09-28T13:26:00.952Z,56.59
2022-09-28T13:31:03.216Z,58.42
2022-09-28T13:36:05.698Z,61.97
2022-09-28T13:41:24.838Z,64.97
2022-09-28T13:46:34.712Z,65.89
2022-09-28T13:51:55.631Z,67.03
2022-09-28T13:57:13.463Z,67.56
2022-09-28T14:02:30.480Z,67.43
2022-09-28T14:07:59.673Z,68.73
2022-09-28T14:12:58.741Z,68.53
2022-09-28T14:18:12.527Z,68.00
2022-09-28T14:23:58.940Z,67.40
2022-09-28T14:29:16.694Z,65.90
2022-09-28T14:34:34.535Z,64.99
2022-09-28T14:39:55.646Z,64.16
2022-09-28T14:45:38.594Z,63.33
2022-09-28T14:50:38.266Z,62.74
2022-09-28T14:55:51.260Z,62.53
2022-09-28T15:00:53.862Z,62.19
2022-09-28T15:05:54.085Z,62.17
2022-09-28T15:10:54.908Z,62.48
2022-09-28T15:16:01.052Z,62.49
2022-09-28T15:21:01.729Z,62.47
2022-09-28T15:26:01.272Z,62.88
2022-09-28T15:31:06.865Z,63.13
2022-09-28T15:36:10.995Z,63.22
2022-09-28T15:41:12.142Z,63.42
2022-09-28T15:46:19.363Z,63.58
2022-09-28T15:51:20.102Z,64.11
2022-09-28T15:56:19.212Z,64.15
2022-09-28T16:01:40.006Z,64.13
2022-09-28T16:06:39.017Z,64.56
2022-09-28T16:11:42.295Z,65.05
2022-09-28T16:16:48.095Z,65.44
2022-09-28T16:21:52.739Z,66.00
2022-09-28T16:26:59.432Z,66.57
2022-09-28T16:31:58.671Z,66.81
2022-09-28T16:36:58.376Z,67.00
2022-09-28T16:42:04.019Z,67.17
2022-09-28T16:47:03.204Z,67.53
2022-09-28T16:52:43.115Z,68.01
2022-09-28T16:57:42.660Z,68.44
2022-09-28T17:02:46.824Z,68.77
2022-09-28T17:07:48.282Z,69.13
2022-09-28T17:12:48.208Z,69.56
2022-09-28T17:17:48.109Z,69.97
2022-09-28T17:23:13.823Z,70.25
2022-09-28T17:28:23.119Z,70.57
2022-09-28T17:33:23.764Z,70.78
2022-09-28T17:38:22.907Z,70.94
2022-09-28T17:43:22.722Z,71.01
2022-09-28T17:48:24.502Z,71.24
2022-09-28T17:53:23.078Z,71.57
2022-09-28T17:58:23.777Z,71.95
2022-09-28T18:03:26.416Z,72.27
2022-09-28T18:08:26.059Z,72.75
2022-09-28T18:13:25.407Z,73.46
2022-09-28T18:18:28.983Z,74.10
2022-09-28T18:23:30.186Z,74.70
2022-09-28T18:28:29.705Z,75.33
2022-09-28T18:33:43.101Z,75.86
2022-09-28T18:38:43.160Z,76.40
2022-09-28T18:43:43.390Z,77.07
2022-09-28T18:48:44.145Z,77.37
2022-09-28T18:53:44.277Z,77.75
2022-09-28T18:58:45.595Z,78.06
2022-09-28T19:03:44.550Z,78.35
2022-09-28T19:08:44.215Z,78.66
2022-09-28T19:13:45.332Z,78.90
2022-09-28T19:18:46.253Z,79.23
2022-09-28T19:23:49.818Z,79.29
2022-09-28T19:28:50.371Z,79.57
2022-09-28T19:33:49.586Z,79.78
2022-09-28T19:38:50.349Z,80.03
2022-09-28T19:43:50.650Z,80.26
2022-09-28T19:48:50.213Z,80.41
2022-09-28T19:53:50.340Z,80.53
2022-09-28T19:58:50.037Z,80.65
2022-09-28T20:03:51.539Z,80.78
2022-09-28T20:08:51.299Z,80.74
2022-09-28T20:13:51.060Z,80.86
2022-09-28T20:18:51.545Z,81.00
2022-09-28T20:23:51.988Z,81.03
2022-09-28T20:28:51.301Z,81.07
2022-09-28T20:33:51.336Z,81.10
2022-09-28T20:38:53.717Z,81.11
2022-09-28T20:44:04.851Z,81.10
2022-09-28T20:49:08.064Z,81.10
2022-09-28T20:54:08.561Z,81.13
2022-09-28T20:59:11.558Z,81.18
2022-09-28T21:04:14.002Z,81.31
2022-09-28T21:09:14.330Z,81.36
2022-09-28T21:14:13.938Z,81.43
2022-09-28T21:19:13.583Z,81.56
2022-09-28T21:24:14.369Z,81.70
2022-09-28T21:29:17.924Z,81.87
2022-09-28T21:34:20.291Z,82.14
2022-09-28T21:39:20.624Z,82.39
2022-09-28T21:44:20.138Z,82.64
2022-09-28T21:49:19.986Z,82.91
2022-09-28T21:54:20.059Z,83.08
2022-09-28T21:59:22.508Z,83.15
2022-09-28T22:04:21.890Z,83.19
2022-09-28T22:09:21.672Z,83.18
2022-09-28T22:14:21.250Z,83.10
2022-09-28T22:19:20.693Z,83.02
2022-09-28T22:24:20.087Z,83.00
2022-09-28T22:29:21.898Z,83.00
2022-09-28T22:34:23.538Z,83.02
2022-09-28T22:39:23.241Z,83.12
2022-09-28T22:44:23.456Z,83.28
2022-09-28T22:49:25.057Z,83.46
2022-09-28T22:54:24.678Z,83.64
2022-09-28T22:59:25.152Z,83.71
2022-09-28T23:04:25.292Z,83.85
2022-09-28T23:09:25.088Z,83.94
2022-09-28T23:14:25.411Z,84.01
2022-09-28T23:19:24.898Z,84.13
2022-09-28T23:24:24.529Z,84.36
2022-09-28T23:29:24.356Z,84.57
2022-09-28T23:34:24.004Z,84.79
2022-09-28T23:39:24.485Z,85.06
2022-09-28T23:44:24.087Z,85.37
2022-09-28T23:49:24.261Z,85.63
2022-09-28T23:54:24.454Z,85.86
2022-09-28T23:59:23.624Z,86.04
